sensor_id;sensor_type;location;lat;lon;timestamp;P1;durP1;ratioP1;P2;durP2;ratioP2
3107;SDS011;1564;49.234;8.554;2023-07-22T00:00:46;9.63;;;1.67;;
3107;SDS011;1564;49.234;8.554;2023-07-22T00:03:12;2.70;;;1.70;;
3107;SDS011;1564;49.234;8.554;2023-07-22T00:05:39;3.30;;;1.47;;
3107;SDS011;1564;49.234;8.554;2023-07-22T00:08:05;3.13;;;1.57;;
3107;SDS011;1564;49.234;8.554;2023-07-22T00:10:31;2.53;;;1.87;;
3107;SDS011;1564;49.234;8.554;2023-07-22T00:12:57;2.60;;;1.43;;
3107;SDS011;1564;49.234;8.554;2023-07-22T00:15:22;4.00;;;2.23;;
3107;SDS011;1564;49.234;8.554;2023-07-22T00:17:50;2.87;;;2.00;;
3107;SDS011;1564;49.234;8.554;2023-07-22T00:20:16;2.97;;;1.93;;
3107;SDS011;1564;49.234;8.554;2023-07-22T00:22:42;2.53;;;1.83;;
3107;SDS011;1564;49.234;8.554;2023-07-22T00:25:11;5.30;;;2.10;;
3107;SDS011;1564;49.234;8.554;2023-07-22T00:27:38;5.50;;;1.90;;
3107;SDS011;1564;49.234;8.554;2023-07-22T00:30:06;3.00;;;1.73;;
3107;SDS011;1564;49.234;8.554;2023-07-22T00:32:32;2.00;;;1.47;;
3107;SDS011;1564;49.234;8.554;2023-07-22T00:34:58;1.70;;;1.47;;
3107;SDS011;1564;49.234;8.554;2023-07-22T00:37:24;2.20;;;1.30;;
3107;SDS011;1564;49.234;8.554;2023-07-22T00:39:50;2.97;;;1.80;;
3107;SDS011;1564;49.234;8.554;2023-07-22T00:42:16;2.80;;;1.73;;
3107;SDS011;1564;49.234;8.554;2023-07-22T00:44:42;2.20;;;1.63;;
3107;SDS011;1564;49.234;8.554;2023-07-22T00:47:08;2.17;;;1.63;;
3107;SDS011;1564;49.234;8.554;2023-07-22T00:49:34;3.70;;;1.80;;
3107;SDS011;1564;49.234;8.554;2023-07-22T00:52:01;2.07;;;1.50;;
3107;SDS011;1564;49.234;8.554;2023-07-22T00:54:28;2.70;;;1.60;;
3107;SDS011;1564;49.234;8.554;2023-07-22T00:56:55;2.40;;;1.47;;
3107;SDS011;1564;49.234;8.554;2023-07-22T00:59:22;1.77;;;1.30;;
3107;SDS011;1564;49.234;8.554;2023-07-22T01:01:49;7.00;;;1.77;;
3107;SDS011;1564;49.234;8.554;2023-07-22T01:04:15;2.97;;;1.53;;
3107;SDS011;1564;49.234;8.554;2023-07-22T01:06:44;7.00;;;1.40;;
3107;SDS011;1564;49.234;8.554;2023-07-22T01:09:10;4.73;;;2.30;;
3107;SDS011;1564;49.234;8.554;2023-07-22T01:11:36;2.17;;;1.70;;
3107;SDS011;1564;49.234;8.554;2023-07-22T01:14:02;3.10;;;1.73;;
3107;SDS011;1564;49.234;8.554;2023-07-22T01:16:29;7.80;;;2.23;;
3107;SDS011;1564;49.234;8.554;2023-07-22T01:18:55;2.90;;;1.60;;
3107;SDS011;1564;49.234;8.554;2023-07-22T01:21:24;2.53;;;1.57;;
3107;SDS011;1564;49.234;8.554;2023-07-22T01:23:51;2.33;;;1.70;;
3107;SDS011;1564;49.234;8.554;2023-07-22T01:26:17;3.23;;;1.60;;
3107;SDS011;1564;49.234;8.554;2023-07-22T01:28:44;2.70;;;1.60;;
3107;SDS011;1564;49.234;8.554;2023-07-22T01:31:10;4.27;;;1.90;;
3107;SDS011;1564;49.234;8.554;2023-07-22T01:33:36;1.53;;;1.20;;
3107;SDS011;1564;49.234;8.554;2023-07-22T01:36:03;2.03;;;1.70;;
3107;SDS011;1564;49.234;8.554;2023-07-22T01:38:29;2.30;;;1.80;;
3107;SDS011;1564;49.234;8.554;2023-07-22T01:40:56;2.10;;;1.43;;
3107;SDS011;1564;49.234;8.554;2023-07-22T01:43:22;3.03;;;1.90;;
3107;SDS011;1564;49.234;8.554;2023-07-22T01:45:48;2.50;;;1.70;;
3107;SDS011;1564;49.234;8.554;2023-07-22T01:48:13;4.70;;;1.60;;
3107;SDS011;1564;49.234;8.554;2023-07-22T01:50:39;2.57;;;1.83;;
3107;SDS011;1564;49.234;8.554;2023-07-22T01:53:05;2.27;;;1.47;;
3107;SDS011;1564;49.234;8.554;2023-07-22T01:55:31;2.93;;;1.90;;
3107;SDS011;1564;49.234;8.554;2023-07-22T01:57:57;2.53;;;1.70;;
3107;SDS011;1564;49.234;8.554;2023-07-22T02:00:24;2.80;;;1.83;;
3107;SDS011;1564;49.234;8.554;2023-07-22T02:02:49;2.10;;;1.60;;
3107;SDS011;1564;49.234;8.554;2023-07-22T02:05:15;2.47;;;1.50;;
3107;SDS011;1564;49.234;8.554;2023-07-22T02:07:41;2.40;;;1.60;;
3107;SDS011;1564;49.234;8.554;2023-07-22T02:10:07;3.73;;;1.77;;
3107;SDS011;1564;49.234;8.554;2023-07-22T02:12:35;3.07;;;1.80;;
3107;SDS011;1564;49.234;8.554;2023-07-22T02:15:01;2.13;;;1.73;;
3107;SDS011;1564;49.234;8.554;2023-07-22T02:17:28;6.20;;;1.70;;
3107;SDS011;1564;49.234;8.554;2023-07-22T02:19:56;3.90;;;2.17;;
3107;SDS011;1564;49.234;8.554;2023-07-22T02:22:22;2.57;;;1.40;;
3107;SDS011;1564;49.234;8.554;2023-07-22T02:24:48;4.40;;;1.77;;
3107;SDS011;1564;49.234;8.554;2023-07-22T02:27:14;2.30;;;1.57;;
3107;SDS011;1564;49.234;8.554;2023-07-22T02:29:39;5.90;;;1.73;;
3107;SDS011;1564;49.234;8.554;2023-07-22T02:32:05;2.93;;;2.10;;
3107;SDS011;1564;49.234;8.554;2023-07-22T02:34:31;2.57;;;1.60;;
3107;SDS011;1564;49.234;8.554;2023-07-22T02:36:57;4.37;;;2.07;;
3107;SDS011;1564;49.234;8.554;2023-07-22T02:39:23;3.33;;;1.93;;
3107;SDS011;1564;49.234;8.554;2023-07-22T02:41:49;4.67;;;2.23;;
3107;SDS011;1564;49.234;8.554;2023-07-22T02:44:15;3.03;;;2.10;;
3107;SDS011;1564;49.234;8.554;2023-07-22T02:46:40;2.60;;;1.67;;
3107;SDS011;1564;49.234;8.554;2023-07-22T02:49:06;3.53;;;2.30;;
3107;SDS011;1564;49.234;8.554;2023-07-22T02:51:32;2.80;;;2.07;;
3107;SDS011;1564;49.234;8.554;2023-07-22T02:53:58;2.60;;;1.77;;
3107;SDS011;1564;49.234;8.554;2023-07-22T02:56:24;3.00;;;1.83;;
3107;SDS011;1564;49.234;8.554;2023-07-22T02:58:49;3.20;;;1.80;;
3107;SDS011;1564;49.234;8.554;2023-07-22T03:01:15;2.50;;;1.77;;
3107;SDS011;1564;49.234;8.554;2023-07-22T03:03:41;2.73;;;1.83;;
3107;SDS011;1564;49.234;8.554;2023-07-22T03:06:07;3.47;;;2.33;;
3107;SDS011;1564;49.234;8.554;2023-07-22T03:08:34;2.93;;;1.93;;
3107;SDS011;1564;49.234;8.554;2023-07-22T03:11:00;3.07;;;2.23;;
3107;SDS011;1564;49.234;8.554;2023-07-22T03:13:26;3.80;;;2.30;;
3107;SDS011;1564;49.234;8.554;2023-07-22T03:15:55;3.37;;;2.33;;
3107;SDS011;1564;49.234;8.554;2023-07-22T03:18:21;4.43;;;1.80;;
3107;SDS011;1564;49.234;8.554;2023-07-22T03:20:47;3.70;;;2.20;;
3107;SDS011;1564;49.234;8.554;2023-07-22T03:23:13;3.30;;;2.00;;
3107;SDS011;1564;49.234;8.554;2023-07-22T03:25:39;4.20;;;2.27;;
3107;SDS011;1564;49.234;8.554;2023-07-22T03:28:06;4.03;;;1.73;;
3107;SDS011;1564;49.234;8.554;2023-07-22T03:30:32;5.23;;;2.97;;
3107;SDS011;1564;49.234;8.554;2023-07-22T03:32:59;5.37;;;2.23;;
3107;SDS011;1564;49.234;8.554;2023-07-22T03:35:25;4.17;;;2.13;;
3107;SDS011;1564;49.234;8.554;2023-07-22T03:37:51;3.37;;;2.10;;
3107;SDS011;1564;49.234;8.554;2023-07-22T03:40:17;3.63;;;2.30;;
3107;SDS011;1564;49.234;8.554;2023-07-22T03:42:50;3.10;;;2.20;;
3107;SDS011;1564;49.234;8.554;2023-07-22T03:45:16;4.03;;;2.40;;
3107;SDS011;1564;49.234;8.554;2023-07-22T03:47:44;2.80;;;1.90;;
3107;SDS011;1564;49.234;8.554;2023-07-22T03:50:11;3.70;;;2.30;;
3107;SDS011;1564;49.234;8.554;2023-07-22T03:52:36;3.40;;;2.27;;
3107;SDS011;1564;49.234;8.554;2023-07-22T03:55:03;5.57;;;2.40;;
3107;SDS011;1564;49.234;8.554;2023-07-22T03:57:30;3.77;;;1.83;;
3107;SDS011;1564;49.234;8.554;2023-07-22T03:59:56;2.63;;;1.77;;
3107;SDS011;1564;49.234;8.554;2023-07-22T04:02:23;3.97;;;2.00;;
3107;SDS011;1564;49.234;8.554;2023-07-22T04:04:53;4.80;;;2.23;;
3107;SDS011;1564;49.234;8.554;2023-07-22T04:07:20;3.13;;;2.10;;
3107;SDS011;1564;49.234;8.554;2023-07-22T04:09:46;2.77;;;1.80;;
3107;SDS011;1564;49.234;8.554;2023-07-22T04:12:13;2.40;;;1.90;;
3107;SDS011;1564;49.234;8.554;2023-07-22T04:14:38;2.77;;;1.90;;
3107;SDS011;1564;49.234;8.554;2023-07-22T04:17:05;2.87;;;2.17;;
3107;SDS011;1564;49.234;8.554;2023-07-22T04:19:31;3.90;;;1.80;;
3107;SDS011;1564;49.234;8.554;2023-07-22T04:21:57;3.17;;;1.80;;
3107;SDS011;1564;49.234;8.554;2023-07-22T04:24:22;2.63;;;1.73;;
3107;SDS011;1564;49.234;8.554;2023-07-22T04:26:50;4.80;;;3.10;;
3107;SDS011;1564;49.234;8.554;2023-07-22T04:29:16;3.13;;;1.97;;
3107;SDS011;1564;49.234;8.554;2023-07-22T04:31:42;3.67;;;1.93;;
3107;SDS011;1564;49.234;8.554;2023-07-22T04:34:08;5.27;;;2.27;;
3107;SDS011;1564;49.234;8.554;2023-07-22T04:36:34;4.03;;;2.50;;
3107;SDS011;1564;49.234;8.554;2023-07-22T04:39:02;3.07;;;2.37;;
3107;SDS011;1564;49.234;8.554;2023-07-22T04:41:30;2.20;;;1.90;;
3107;SDS011;1564;49.234;8.554;2023-07-22T04:43:56;3.50;;;2.37;;
3107;SDS011;1564;49.234;8.554;2023-07-22T04:46:23;3.60;;;2.40;;
3107;SDS011;1564;49.234;8.554;2023-07-22T04:48:50;4.10;;;2.30;;
3107;SDS011;1564;49.234;8.554;2023-07-22T04:51:19;4.63;;;1.90;;
3107;SDS011;1564;49.234;8.554;2023-07-22T04:53:44;7.90;;;2.10;;
3107;SDS011;1564;49.234;8.554;2023-07-22T04:56:10;3.63;;;2.00;;
3107;SDS011;1564;49.234;8.554;2023-07-22T04:58:36;2.77;;;2.00;;
3107;SDS011;1564;49.234;8.554;2023-07-22T05:01:02;3.00;;;1.90;;
3107;SDS011;1564;49.234;8.554;2023-07-22T05:03:27;10.63;;;2.50;;
3107;SDS011;1564;49.234;8.554;2023-07-22T05:05:53;3.20;;;2.13;;
3107;SDS011;1564;49.234;8.554;2023-07-22T05:08:19;4.30;;;2.10;;
3107;SDS011;1564;49.234;8.554;2023-07-22T05:10:45;3.20;;;2.10;;
3107;SDS011;1564;49.234;8.554;2023-07-22T05:13:11;4.03;;;2.00;;
3107;SDS011;1564;49.234;8.554;2023-07-22T05:15:37;3.73;;;2.30;;
3107;SDS011;1564;49.234;8.554;2023-07-22T05:18:03;2.30;;;1.60;;
3107;SDS011;1564;49.234;8.554;2023-07-22T05:20:29;2.90;;;1.87;;
3107;SDS011;1564;49.234;8.554;2023-07-22T05:22:55;3.70;;;1.77;;
3107;SDS011;1564;49.234;8.554;2023-07-22T05:25:20;2.97;;;2.00;;
3107;SDS011;1564;49.234;8.554;2023-07-22T05:27:46;2.67;;;1.50;;
3107;SDS011;1564;49.234;8.554;2023-07-22T05:30:12;3.40;;;1.90;;
3107;SDS011;1564;49.234;8.554;2023-07-22T05:32:38;8.13;;;2.17;;
3107;SDS011;1564;49.234;8.554;2023-07-22T05:35:04;4.63;;;2.73;;
3107;SDS011;1564;49.234;8.554;2023-07-22T05:37:30;3.20;;;1.90;;
3107;SDS011;1564;49.234;8.554;2023-07-22T05:39:56;4.40;;;2.07;;
3107;SDS011;1564;49.234;8.554;2023-07-22T05:42:22;2.77;;;1.60;;
3107;SDS011;1564;49.234;8.554;2023-07-22T05:44:48;4.10;;;1.80;;
3107;SDS011;1564;49.234;8.554;2023-07-22T05:47:14;2.67;;;1.80;;
3107;SDS011;1564;49.234;8.554;2023-07-22T05:49:40;2.03;;;1.20;;
3107;SDS011;1564;49.234;8.554;2023-07-22T05:52:06;4.40;;;2.20;;
3107;SDS011;1564;49.234;8.554;2023-07-22T05:54:32;4.67;;;1.90;;
3107;SDS011;1564;49.234;8.554;2023-07-22T05:56:58;3.93;;;1.87;;
3107;SDS011;1564;49.234;8.554;2023-07-22T05:59:24;2.63;;;1.50;;
3107;SDS011;1564;49.234;8.554;2023-07-22T06:01:50;4.43;;;2.27;;
3107;SDS011;1564;49.234;8.554;2023-07-22T06:04:16;2.50;;;1.87;;
3107;SDS011;1564;49.234;8.554;2023-07-22T06:06:42;4.30;;;2.00;;
3107;SDS011;1564;49.234;8.554;2023-07-22T06:09:07;4.93;;;1.80;;
3107;SDS011;1564;49.234;8.554;2023-07-22T06:11:33;2.40;;;1.60;;
3107;SDS011;1564;49.234;8.554;2023-07-22T06:13:59;2.93;;;2.30;;
3107;SDS011;1564;49.234;8.554;2023-07-22T06:16:25;2.67;;;1.50;;
3107;SDS011;1564;49.234;8.554;2023-07-22T06:18:50;4.13;;;2.47;;
3107;SDS011;1564;49.234;8.554;2023-07-22T06:21:16;4.90;;;1.77;;
3107;SDS011;1564;49.234;8.554;2023-07-22T06:23:42;1.87;;;1.30;;
3107;SDS011;1564;49.234;8.554;2023-07-22T06:26:08;5.03;;;2.00;;
3107;SDS011;1564;49.234;8.554;2023-07-22T06:28:34;3.83;;;1.90;;
3107;SDS011;1564;49.234;8.554;2023-07-22T06:31:00;2.00;;;1.30;;
3107;SDS011;1564;49.234;8.554;2023-07-22T06:33:25;2.80;;;1.77;;
3107;SDS011;1564;49.234;8.554;2023-07-22T06:35:54;2.67;;;2.17;;
3107;SDS011;1564;49.234;8.554;2023-07-22T06:38:20;2.30;;;1.40;;
3107;SDS011;1564;49.234;8.554;2023-07-22T06:40:46;3.77;;;1.80;;
3107;SDS011;1564;49.234;8.554;2023-07-22T06:43:11;2.53;;;1.63;;
3107;SDS011;1564;49.234;8.554;2023-07-22T06:45:37;3.50;;;1.80;;
3107;SDS011;1564;49.234;8.554;2023-07-22T06:48:03;3.37;;;2.10;;
3107;SDS011;1564;49.234;8.554;2023-07-22T06:50:29;3.70;;;1.93;;
3107;SDS011;1564;49.234;8.554;2023-07-22T06:52:55;5.00;;;1.70;;
3107;SDS011;1564;49.234;8.554;2023-07-22T06:55:20;3.47;;;1.87;;
3107;SDS011;1564;49.234;8.554;2023-07-22T06:57:48;2.50;;;1.70;;
3107;SDS011;1564;49.234;8.554;2023-07-22T07:00:14;4.00;;;1.90;;
3107;SDS011;1564;49.234;8.554;2023-07-22T07:02:40;2.93;;;1.77;;
3107;SDS011;1564;49.234;8.554;2023-07-22T07:05:06;3.57;;;2.47;;
3107;SDS011;1564;49.234;8.554;2023-07-22T07:07:32;5.13;;;2.40;;
3107;SDS011;1564;49.234;8.554;2023-07-22T07:09:58;2.87;;;2.07;;
3107;SDS011;1564;49.234;8.554;2023-07-22T07:12:24;2.40;;;1.87;;
3107;SDS011;1564;49.234;8.554;2023-07-22T07:14:50;3.63;;;2.30;;
3107;SDS011;1564;49.234;8.554;2023-07-22T07:17:17;4.20;;;2.13;;
3107;SDS011;1564;49.234;8.554;2023-07-22T07:19:43;3.70;;;1.97;;
3107;SDS011;1564;49.234;8.554;2023-07-22T07:22:08;4.30;;;2.00;;
3107;SDS011;1564;49.234;8.554;2023-07-22T07:24:34;2.80;;;1.60;;
3107;SDS011;1564;49.234;8.554;2023-07-22T07:27:00;2.90;;;1.73;;
3107;SDS011;1564;49.234;8.554;2023-07-22T07:29:26;3.20;;;2.00;;
3107;SDS011;1564;49.234;8.554;2023-07-22T07:31:51;1.80;;;1.33;;
3107;SDS011;1564;49.234;8.554;2023-07-22T07:34:17;5.40;;;2.00;;
3107;SDS011;1564;49.234;8.554;2023-07-22T07:36:43;3.50;;;2.13;;
3107;SDS011;1564;49.234;8.554;2023-07-22T07:39:09;2.50;;;1.90;;
3107;SDS011;1564;49.234;8.554;2023-07-22T07:41:34;10.20;;;1.90;;
3107;SDS011;1564;49.234;8.554;2023-07-22T07:44:00;3.30;;;1.73;;
3107;SDS011;1564;49.234;8.554;2023-07-22T07:46:27;3.90;;;2.03;;
3107;SDS011;1564;49.234;8.554;2023-07-22T07:48:57;4.03;;;1.77;;
3107;SDS011;1564;49.234;8.554;2023-07-22T07:51:26;3.37;;;1.50;;
3107;SDS011;1564;49.234;8.554;2023-07-22T07:53:56;2.93;;;1.60;;
3107;SDS011;1564;49.234;8.554;2023-07-22T07:56:23;2.80;;;1.40;;
3107;SDS011;1564;49.234;8.554;2023-07-22T07:58:50;2.17;;;1.33;;
3107;SDS011;1564;49.234;8.554;2023-07-22T08:01:18;3.60;;;2.00;;
3107;SDS011;1564;49.234;8.554;2023-07-22T08:03:44;2.13;;;1.50;;
3107;SDS011;1564;49.234;8.554;2023-07-22T08:06:11;3.30;;;1.50;;
3107;SDS011;1564;49.234;8.554;2023-07-22T08:08:37;3.23;;;1.90;;
3107;SDS011;1564;49.234;8.554;2023-07-22T08:11:07;3.10;;;1.90;;
3107;SDS011;1564;49.234;8.554;2023-07-22T08:13:34;3.30;;;2.13;;
3107;SDS011;1564;49.234;8.554;2023-07-22T08:16:02;3.07;;;1.53;;
3107;SDS011;1564;49.234;8.554;2023-07-22T08:18:29;1.70;;;1.00;;
3107;SDS011;1564;49.234;8.554;2023-07-22T08:20:55;1.83;;;1.30;;
3107;SDS011;1564;49.234;8.554;2023-07-22T08:23:21;4.13;;;1.30;;
3107;SDS011;1564;49.234;8.554;2023-07-22T08:25:47;2.60;;;1.30;;
3107;SDS011;1564;49.234;8.554;2023-07-22T08:28:13;2.80;;;1.63;;
3107;SDS011;1564;49.234;8.554;2023-07-22T08:30:40;1.57;;;1.30;;
3107;SDS011;1564;49.234;8.554;2023-07-22T08:33:07;2.90;;;1.60;;
3107;SDS011;1564;49.234;8.554;2023-07-22T08:35:34;2.23;;;1.60;;
3107;SDS011;1564;49.234;8.554;2023-07-22T08:38:01;2.33;;;1.30;;
3107;SDS011;1564;49.234;8.554;2023-07-22T08:40:35;2.20;;;1.17;;
3107;SDS011;1564;49.234;8.554;2023-07-22T08:43:02;1.93;;;1.10;;
3107;SDS011;1564;49.234;8.554;2023-07-22T08:45:29;2.07;;;1.17;;
3107;SDS011;1564;49.234;8.554;2023-07-22T08:47:59;1.83;;;1.23;;
3107;SDS011;1564;49.234;8.554;2023-07-22T08:50:59;1.30;;;1.03;;
3107;SDS011;1564;49.234;8.554;2023-07-22T08:53:45;4.30;;;1.40;;
3107;SDS011;1564;49.234;8.554;2023-07-22T08:56:12;1.63;;;1.17;;
3107;SDS011;1564;49.234;8.554;2023-07-22T08:58:38;12.70;;;2.33;;
3107;SDS011;1564;49.234;8.554;2023-07-22T09:01:04;4.90;;;2.30;;
3107;SDS011;1564;49.234;8.554;2023-07-22T09:03:30;2.13;;;1.37;;
3107;SDS011;1564;49.234;8.554;2023-07-22T09:05:57;2.90;;;1.70;;
3107;SDS011;1564;49.234;8.554;2023-07-22T09:08:24;2.37;;;1.27;;
3107;SDS011;1564;49.234;8.554;2023-07-22T09:10:50;2.10;;;1.37;;
3107;SDS011;1564;49.234;8.554;2023-07-22T09:13:16;1.73;;;1.17;;
3107;SDS011;1564;49.234;8.554;2023-07-22T09:15:44;1.70;;;1.57;;
3107;SDS011;1564;49.234;8.554;2023-07-22T09:18:11;2.17;;;1.37;;
3107;SDS011;1564;49.234;8.554;2023-07-22T09:20:36;2.60;;;1.20;;
3107;SDS011;1564;49.234;8.554;2023-07-22T09:23:02;1.80;;;1.20;;
3107;SDS011;1564;49.234;8.554;2023-07-22T09:25:28;3.13;;;1.20;;
3107;SDS011;1564;49.234;8.554;2023-07-22T09:27:54;1.50;;;0.90;;
3107;SDS011;1564;49.234;8.554;2023-07-22T09:30:36;1.73;;;0.90;;
3107;SDS011;1564;49.234;8.554;2023-07-22T09:33:04;6.10;;;1.60;;
3107;SDS011;1564;49.234;8.554;2023-07-22T09:35:52;1.27;;;0.97;;
3107;SDS011;1564;49.234;8.554;2023-07-22T09:38:24;1.53;;;0.97;;
3107;SDS011;1564;49.234;8.554;2023-07-22T09:40:51;2.43;;;1.10;;
3107;SDS011;1564;49.234;8.554;2023-07-22T09:43:17;1.70;;;1.20;;
3107;SDS011;1564;49.234;8.554;2023-07-22T09:45:45;1.50;;;1.10;;
3107;SDS011;1564;49.234;8.554;2023-07-22T09:48:13;1.67;;;1.17;;
3107;SDS011;1564;49.234;8.554;2023-07-22T09:50:39;2.10;;;1.20;;
3107;SDS011;1564;49.234;8.554;2023-07-22T09:53:05;1.37;;;1.00;;
3107;SDS011;1564;49.234;8.554;2023-07-22T09:55:32;2.17;;;1.23;;
3107;SDS011;1564;49.234;8.554;2023-07-22T09:58:02;1.43;;;1.10;;
3107;SDS011;1564;49.234;8.554;2023-07-22T10:00:34;2.13;;;1.00;;
3107;SDS011;1564;49.234;8.554;2023-07-22T10:03:02;1.33;;;1.00;;
3107;SDS011;1564;49.234;8.554;2023-07-22T10:05:33;1.83;;;0.90;;
3107;SDS011;1564;49.234;8.554;2023-07-22T10:08:00;2.93;;;1.50;;
3107;SDS011;1564;49.234;8.554;2023-07-22T10:10:31;1.43;;;0.90;;
3107;SDS011;1564;49.234;8.554;2023-07-22T10:12:59;1.77;;;1.00;;
3107;SDS011;1564;49.234;8.554;2023-07-22T10:15:27;1.43;;;1.13;;
3107;SDS011;1564;49.234;8.554;2023-07-22T10:17:54;1.30;;;1.10;;
3107;SDS011;1564;49.234;8.554;2023-07-22T10:20:21;1.63;;;1.10;;
3107;SDS011;1564;49.234;8.554;2023-07-22T10:22:48;2.40;;;1.63;;
3107;SDS011;1564;49.234;8.554;2023-07-22T10:25:18;1.20;;;1.00;;
3107;SDS011;1564;49.234;8.554;2023-07-22T10:27:47;1.77;;;1.10;;
3107;SDS011;1564;49.234;8.554;2023-07-22T10:30:14;1.50;;;1.10;;
3107;SDS011;1564;49.234;8.554;2023-07-22T10:32:43;2.10;;;1.10;;
3107;SDS011;1564;49.234;8.554;2023-07-22T10:38:28;2.53;;;1.20;;
3107;SDS011;1564;49.234;8.554;2023-07-22T10:40:54;2.00;;;1.20;;
3107;SDS011;1564;49.234;8.554;2023-07-22T10:43:25;1.63;;;1.20;;
3107;SDS011;1564;49.234;8.554;2023-07-22T10:46:09;1.40;;;1.00;;
3107;SDS011;1564;49.234;8.554;2023-07-22T10:48:40;4.53;;;1.50;;
3107;SDS011;1564;49.234;8.554;2023-07-22T10:51:09;1.77;;;1.30;;
3107;SDS011;1564;49.234;8.554;2023-07-22T10:53:43;2.60;;;0.90;;
3107;SDS011;1564;49.234;8.554;2023-07-22T10:56:13;2.00;;;1.00;;
3107;SDS011;1564;49.234;8.554;2023-07-22T11:40:23;1.20;;;0.97;;
3107;SDS011;1564;49.234;8.554;2023-07-22T11:43:04;1.93;;;0.90;;
3107;SDS011;1564;49.234;8.554;2023-07-22T11:45:30;1.10;;;0.90;;
3107;SDS011;1564;49.234;8.554;2023-07-22T11:47:57;2.10;;;1.10;;
3107;SDS011;1564;49.234;8.554;2023-07-22T11:50:32;1.20;;;1.00;;
3107;SDS011;1564;49.234;8.554;2023-07-22T11:52:58;1.40;;;1.00;;
3107;SDS011;1564;49.234;8.554;2023-07-22T11:55:24;1.30;;;1.10;;
3107;SDS011;1564;49.234;8.554;2023-07-22T11:57:54;4.20;;;1.30;;
3107;SDS011;1564;49.234;8.554;2023-07-22T12:03:06;1.03;;;0.80;;
3107;SDS011;1564;49.234;8.554;2023-07-22T12:05:37;2.20;;;1.23;;
3107;SDS011;1564;49.234;8.554;2023-07-22T12:08:06;1.20;;;0.97;;
3107;SDS011;1564;49.234;8.554;2023-07-22T12:10:32;2.97;;;1.03;;
3107;SDS011;1564;49.234;8.554;2023-07-22T12:13:01;1.87;;;1.20;;
3107;SDS011;1564;49.234;8.554;2023-07-22T12:15:36;1.00;;;0.90;;
3107;SDS011;1564;49.234;8.554;2023-07-22T12:18:02;1.50;;;1.07;;
3107;SDS011;1564;49.234;8.554;2023-07-22T12:20:29;2.07;;;1.17;;
3107;SDS011;1564;49.234;8.554;2023-07-22T12:22:56;1.33;;;1.00;;
3107;SDS011;1564;49.234;8.554;2023-07-22T12:25:24;1.30;;;1.00;;
3107;SDS011;1564;49.234;8.554;2023-07-22T12:27:50;1.30;;;0.80;;
3107;SDS011;1564;49.234;8.554;2023-07-22T12:30:16;1.20;;;0.93;;
3107;SDS011;1564;49.234;8.554;2023-07-22T12:35:45;2.00;;;1.23;;
3107;SDS011;1564;49.234;8.554;2023-07-22T12:38:13;1.90;;;1.27;;
3107;SDS011;1564;49.234;8.554;2023-07-22T12:40:48;5.53;;;0.90;;
3107;SDS011;1564;49.234;8.554;2023-07-22T12:43:14;4.17;;;1.20;;
3107;SDS011;1564;49.234;8.554;2023-07-22T12:45:40;1.17;;;1.07;;
3107;SDS011;1564;49.234;8.554;2023-07-22T12:48:26;1.30;;;1.20;;
3107;SDS011;1564;49.234;8.554;2023-07-22T12:50:52;1.20;;;1.00;;
3107;SDS011;1564;49.234;8.554;2023-07-22T12:53:18;1.30;;;1.20;;
3107;SDS011;1564;49.234;8.554;2023-07-22T12:55:44;1.00;;;0.90;;
3107;SDS011;1564;49.234;8.554;2023-07-22T12:58:13;1.67;;;1.10;;
3107;SDS011;1564;49.234;8.554;2023-07-22T13:00:51;2.37;;;1.10;;
3107;SDS011;1564;49.234;8.554;2023-07-22T13:03:17;1.77;;;1.00;;
3107;SDS011;1564;49.234;8.554;2023-07-22T13:05:46;1.43;;;0.93;;
3107;SDS011;1564;49.234;8.554;2023-07-22T13:08:20;3.03;;;0.90;;
3107;SDS011;1564;49.234;8.554;2023-07-22T13:10:49;1.20;;;1.10;;
3107;SDS011;1564;49.234;8.554;2023-07-22T13:13:14;1.30;;;0.80;;
3107;SDS011;1564;49.234;8.554;2023-07-22T13:15:43;1.20;;;1.10;;
3107;SDS011;1564;49.234;8.554;2023-07-22T13:18:09;1.03;;;0.93;;
3107;SDS011;1564;49.234;8.554;2023-07-22T13:20:38;1.57;;;0.90;;
3107;SDS011;1564;49.234;8.554;2023-07-22T13:23:04;4.30;;;1.10;;
3107;SDS011;1564;49.234;8.554;2023-07-22T13:25:30;1.20;;;1.03;;
3107;SDS011;1564;49.234;8.554;2023-07-22T13:27:56;3.10;;;0.93;;
3107;SDS011;1564;49.234;8.554;2023-07-22T13:30:21;1.40;;;1.30;;
3107;SDS011;1564;49.234;8.554;2023-07-22T13:32:47;2.00;;;0.93;;
3107;SDS011;1564;49.234;8.554;2023-07-22T13:35:13;2.17;;;1.20;;
3107;SDS011;1564;49.234;8.554;2023-07-22T13:37:39;1.50;;;1.40;;
3107;SDS011;1564;49.234;8.554;2023-07-22T13:40:05;1.67;;;1.30;;
3107;SDS011;1564;49.234;8.554;2023-07-22T13:42:35;2.13;;;1.10;;
3107;SDS011;1564;49.234;8.554;2023-07-22T13:45:01;2.00;;;1.57;;
3107;SDS011;1564;49.234;8.554;2023-07-22T13:47:27;1.20;;;1.10;;
3107;SDS011;1564;49.234;8.554;2023-07-22T13:49:53;1.33;;;1.23;;
3107;SDS011;1564;49.234;8.554;2023-07-22T13:52:19;1.20;;;0.80;;
3107;SDS011;1564;49.234;8.554;2023-07-22T13:54:45;2.73;;;1.43;;
3107;SDS011;1564;49.234;8.554;2023-07-22T13:57:10;2.93;;;1.57;;
3107;SDS011;1564;49.234;8.554;2023-07-22T13:59:37;1.80;;;1.30;;
3107;SDS011;1564;49.234;8.554;2023-07-22T14:02:03;2.00;;;1.20;;
3107;SDS011;1564;49.234;8.554;2023-07-22T14:04:29;1.53;;;1.20;;
3107;SDS011;1564;49.234;8.554;2023-07-22T14:06:54;1.43;;;1.33;;
3107;SDS011;1564;49.234;8.554;2023-07-22T14:09:20;1.67;;;1.07;;
3107;SDS011;1564;49.234;8.554;2023-07-22T14:11:46;1.30;;;1.00;;
3107;SDS011;1564;49.234;8.554;2023-07-22T14:14:12;1.23;;;1.03;;
3107;SDS011;1564;49.234;8.554;2023-07-22T14:16:37;1.00;;;0.90;;
3107;SDS011;1564;49.234;8.554;2023-07-22T14:19:03;1.83;;;1.10;;
3107;SDS011;1564;49.234;8.554;2023-07-22T14:21:29;2.03;;;1.30;;
3107;SDS011;1564;49.234;8.554;2023-07-22T14:23:55;1.67;;;1.30;;
3107;SDS011;1564;49.234;8.554;2023-07-22T14:26:20;1.40;;;1.00;;
3107;SDS011;1564;49.234;8.554;2023-07-22T14:28:46;1.40;;;1.30;;
3107;SDS011;1564;49.234;8.554;2023-07-22T14:31:12;1.63;;;1.50;;
3107;SDS011;1564;49.234;8.554;2023-07-22T14:33:38;1.63;;;1.30;;
3107;SDS011;1564;49.234;8.554;2023-07-22T14:36:04;1.83;;;1.53;;
3107;SDS011;1564;49.234;8.554;2023-07-22T14:38:29;4.23;;;2.40;;
3107;SDS011;1564;49.234;8.554;2023-07-22T14:40:55;1.33;;;1.00;;
3107;SDS011;1564;49.234;8.554;2023-07-22T14:43:21;1.97;;;1.10;;
3107;SDS011;1564;49.234;8.554;2023-07-22T14:45:47;1.97;;;1.47;;
3107;SDS011;1564;49.234;8.554;2023-07-22T14:48:12;1.43;;;1.30;;
3107;SDS011;1564;49.234;8.554;2023-07-22T14:50:38;1.10;;;1.00;;
3107;SDS011;1564;49.234;8.554;2023-07-22T14:53:04;1.80;;;1.27;;
3107;SDS011;1564;49.234;8.554;2023-07-22T14:55:30;1.47;;;1.27;;
3107;SDS011;1564;49.234;8.554;2023-07-22T14:57:56;1.20;;;1.00;;
3107;SDS011;1564;49.234;8.554;2023-07-22T15:00:22;1.60;;;1.30;;
3107;SDS011;1564;49.234;8.554;2023-07-22T15:02:48;1.40;;;1.20;;
3107;SDS011;1564;49.234;8.554;2023-07-22T15:05:14;1.47;;;1.00;;
3107;SDS011;1564;49.234;8.554;2023-07-22T15:07:39;2.60;;;1.40;;
3107;SDS011;1564;49.234;8.554;2023-07-22T15:10:08;1.77;;;1.10;;
3107;SDS011;1564;49.234;8.554;2023-07-22T15:12:37;1.80;;;1.20;;
3107;SDS011;1564;49.234;8.554;2023-07-22T15:15:03;0.90;;;0.80;;
3107;SDS011;1564;49.234;8.554;2023-07-22T15:17:31;2.00;;;1.20;;
3107;SDS011;1564;49.234;8.554;2023-07-22T15:20:13;1.55;;;1.08;;
3107;SDS011;1564;49.234;8.554;2023-07-22T15:22:38;1.77;;;1.27;;
3107;SDS011;1564;49.234;8.554;2023-07-22T15:25:07;0.93;;;0.80;;
3107;SDS011;1564;49.234;8.554;2023-07-22T15:27:33;1.37;;;1.27;;
3107;SDS011;1564;49.234;8.554;2023-07-22T15:29:59;2.60;;;1.67;;
3107;SDS011;1564;49.234;8.554;2023-07-22T15:32:25;1.93;;;1.20;;
3107;SDS011;1564;49.234;8.554;2023-07-22T15:34:51;2.00;;;1.50;;
3107;SDS011;1564;49.234;8.554;2023-07-22T15:37:17;1.70;;;1.60;;
3107;SDS011;1564;49.234;8.554;2023-07-22T15:39:42;1.40;;;1.30;;
3107;SDS011;1564;49.234;8.554;2023-07-22T15:42:08;1.53;;;1.17;;
3107;SDS011;1564;49.234;8.554;2023-07-22T15:44:34;3.10;;;1.90;;
3107;SDS011;1564;49.234;8.554;2023-07-22T15:47:00;1.30;;;1.17;;
3107;SDS011;1564;49.234;8.554;2023-07-22T15:49:26;1.67;;;1.43;;
3107;SDS011;1564;49.234;8.554;2023-07-22T15:51:51;1.30;;;1.10;;
3107;SDS011;1564;49.234;8.554;2023-07-22T15:54:17;2.80;;;1.13;;
3107;SDS011;1564;49.234;8.554;2023-07-22T15:56:44;1.43;;;1.30;;
3107;SDS011;1564;49.234;8.554;2023-07-22T15:59:10;2.17;;;1.60;;
3107;SDS011;1564;49.234;8.554;2023-07-22T16:01:36;1.27;;;1.17;;
3107;SDS011;1564;49.234;8.554;2023-07-22T16:04:02;3.33;;;1.53;;